sensor_id;sensor_type;location;lat;lon;timestamp;pressure;altitude;pressure_sealevel;temperature
68440;BMP180;55421;51.600;5.718;2022-11-13T00:01:16;116775.80;;;7.50
68440;BMP180;55421;51.600;5.718;2022-11-13T00:03:44;122585.80;;;7.58
68440;BMP180;55421;51.600;5.718;2022-11-13T00:06:12;126420.00;;;7.60
68440;BMP180;55421;51.600;5.718;2022-11-13T00:08:40;125854.60;;;7.60
68440;BMP180;55421;51.600;5.718;2022-11-13T00:11:17;123540.00;;;7.60
68440;BMP180;55421;51.600;5.718;2022-11-13T00:13:46;118235.40;;;7.56
68440;BMP180;55421;51.600;5.718;2022-11-13T00:16:18;115548.40;;;7.60
68440;BMP180;55421;51.600;5.718;2022-11-13T00:18:46;115168.60;;;7.60
68440;BMP180;55421;51.600;5.718;2022-11-13T00:21:19;116893.60;;;7.60
68440;BMP180;55421;51.600;5.718;2022-11-13T00:23:46;120857.80;;;7.58
68440;BMP180;55421;51.600;5.718;2022-11-13T00:26:25;120573.40;;;7.50
68440;BMP180;55421;51.600;5.718;2022-11-13T00:28:55;116597.20;;;7.50
68440;BMP180;55421;51.600;5.718;2022-11-13T00:31:22;112048.40;;;7.42
68440;BMP180;55421;51.600;5.718;2022-11-13T00:33:49;109863.00;;;7.40
68440;BMP180;55421;51.600;5.718;2022-11-13T00:36:25;112629.40;;;7.40
68440;BMP180;55421;51.600;5.718;2022-11-13T00:38:53;113688.40;;;7.30
68440;BMP180;55421;51.600;5.718;2022-11-13T00:41:21;112916.00;;;7.30
68440;BMP180;55421;51.600;5.718;2022-11-13T00:43:49;110850.40;;;7.20
68440;BMP180;55421;51.600;5.718;2022-11-13T00:46:15;109509.40;;;7.20
68440;BMP180;55421;51.600;5.718;2022-11-13T00:48:42;111079.60;;;7.28
68440;BMP180;55421;51.600;5.718;2022-11-13T00:51:09;107753.00;;;7.20
68440;BMP180;55421;51.600;5.718;2022-11-13T00:53:36;104673.40;;;7.20
68440;BMP180;55421;51.600;5.718;2022-11-13T00:56:03;103563.80;;;7.18
68440;BMP180;55421;51.600;5.718;2022-11-13T00:58:30;103601.80;;;7.10
68440;BMP180;55421;51.600;5.718;2022-11-13T01:01:07;105138.20;;;7.10
68440;BMP180;55421;51.600;5.718;2022-11-13T01:03:34;112018.00;;;7.20
68440;BMP180;55421;51.600;5.718;2022-11-13T01:06:00;105083.60;;;7.20
68440;BMP180;55421;51.600;5.718;2022-11-13T01:08:34;107756.40;;;7.20
68440;BMP180;55421;51.600;5.718;2022-11-13T01:11:12;107727.60;;;7.18
68440;BMP180;55421;51.600;5.718;2022-11-13T01:13:41;105317.80;;;7.10
68440;BMP180;55421;51.600;5.718;2022-11-13T01:16:10;108372.40;;;7.10
68440;BMP180;55421;51.600;5.718;2022-11-13T01:18:38;109880.00;;;7.10
68440;BMP180;55421;51.600;5.718;2022-11-13T01:21:11;109576.40;;;7.10
68440;BMP180;55421;51.600;5.718;2022-11-13T01:23:39;110097.60;;;7.10
68440;BMP180;55421;51.600;5.718;2022-11-13T01:26:20;108433.40;;;7.10
68440;BMP180;55421;51.600;5.718;2022-11-13T01:28:48;112440.60;;;7.10
68440;BMP180;55421;51.600;5.718;2022-11-13T01:31:20;111665.80;;;7.10
68440;BMP180;55421;51.600;5.718;2022-11-13T01:33:48;108642.60;;;7.14
68440;BMP180;55421;51.600;5.718;2022-11-13T01:36:22;113887.20;;;7.12
68440;BMP180;55421;51.600;5.718;2022-11-13T01:38:50;118878.00;;;7.16
68440;BMP180;55421;51.600;5.718;2022-11-13T01:41:25;119778.00;;;7.18
68440;BMP180;55421;51.600;5.718;2022-11-13T01:43:53;119844.60;;;7.20
68440;BMP180;55421;51.600;5.718;2022-11-13T01:46:54;121203.20;;;7.20
68440;BMP180;55421;51.600;5.718;2022-11-13T01:49:50;123071.40;;;7.20
68440;BMP180;55421;51.600;5.718;2022-11-13T01:52:22;120322.20;;;7.20
68440;BMP180;55421;51.600;5.718;2022-11-13T01:55:03;117090.80;;;7.20
68440;BMP180;55421;51.600;5.718;2022-11-13T01:57:30;116334.60;;;7.16
68440;BMP180;55421;51.600;5.718;2022-11-13T02:00:04;114050.60;;;7.16
68440;BMP180;55421;51.600;5.718;2022-11-13T02:02:31;114086.20;;;7.18
68440;BMP180;55421;51.600;5.718;2022-11-13T02:04:57;117706.60;;;7.20
68440;BMP180;55421;51.600;5.718;2022-11-13T02:07:25;117772.00;;;7.20
68440;BMP180;55421;51.600;5.718;2022-11-13T02:09:55;113219.20;;;7.20
68440;BMP180;55421;51.600;5.718;2022-11-13T02:12:37;112827.80;;;7.20
68440;BMP180;55421;51.600;5.718;2022-11-13T02:15:07;113479.80;;;7.24
68440;BMP180;55421;51.600;5.718;2022-11-13T02:17:51;118694.80;;;7.30
68440;BMP180;55421;51.600;5.718;2022-11-13T02:20:32;119889.20;;;7.30
68440;BMP180;55421;51.600;5.718;2022-11-13T02:23:34;121645.00;;;7.30
68440;BMP180;55421;51.600;5.718;2022-11-13T02:26:03;125086.00;;;7.32
68440;BMP180;55421;51.600;5.718;2022-11-13T02:28:30;123555.80;;;7.30
68440;BMP180;55421;51.600;5.718;2022-11-13T02:31:08;121429.40;;;7.30
68440;BMP180;55421;51.600;5.718;2022-11-13T02:33:35;122465.60;;;7.30
68440;BMP180;55421;51.600;5.718;2022-11-13T02:36:04;122143.60;;;7.30
68440;BMP180;55421;51.600;5.718;2022-11-13T02:38:34;120917.00;;;7.30
68440;BMP180;55421;51.600;5.718;2022-11-13T02:41:01;120348.00;;;7.30
68440;BMP180;55421;51.600;5.718;2022-11-13T02:43:28;115876.60;;;7.30
68440;BMP180;55421;51.600;5.718;2022-11-13T02:45:54;111997.60;;;7.30
68440;BMP180;55421;51.600;5.718;2022-11-13T02:48:21;115991.00;;;7.30
68440;BMP180;55421;51.600;5.718;2022-11-13T02:50:47;116553.80;;;7.30
68440;BMP180;55421;51.600;5.718;2022-11-13T02:53:14;117364.80;;;7.30
68440;BMP180;55421;51.600;5.718;2022-11-13T02:55:40;114899.00;;;7.30
68440;BMP180;55421;51.600;5.718;2022-11-13T02:58:07;115132.00;;;7.30
68440;BMP180;55421;51.600;5.718;2022-11-13T03:00:33;114866.60;;;7.30
68440;BMP180;55421;51.600;5.718;2022-11-13T03:03:00;112467.40;;;7.30
68440;BMP180;55421;51.600;5.718;2022-11-13T03:05:26;113717.60;;;7.36
68440;BMP180;55421;51.600;5.718;2022-11-13T03:07:53;111826.20;;;7.36
68440;BMP180;55421;51.600;5.718;2022-11-13T03:10:19;115574.60;;;7.36
68440;BMP180;55421;51.600;5.718;2022-11-13T03:12:46;115571.80;;;7.36
68440;BMP180;55421;51.600;5.718;2022-11-13T03:15:12;114064.20;;;7.40
68440;BMP180;55421;51.600;5.718;2022-11-13T03:17:40;114554.80;;;7.40
68440;BMP180;55421;51.600;5.718;2022-11-13T03:20:07;112679.40;;;7.40
68440;BMP180;55421;51.600;5.718;2022-11-13T03:22:34;112332.40;;;7.40
68440;BMP180;55421;51.600;5.718;2022-11-13T03:25:01;114475.20;;;7.40
68440;BMP180;55421;51.600;5.718;2022-11-13T03:27:30;112016.80;;;7.34
68440;BMP180;55421;51.600;5.718;2022-11-13T03:29:57;113110.20;;;7.30
68440;BMP180;55421;51.600;5.718;2022-11-13T03:32:23;110178.20;;;7.30
68440;BMP180;55421;51.600;5.718;2022-11-13T03:34:50;107995.60;;;7.30
68440;BMP180;55421;51.600;5.718;2022-11-13T03:37:16;108739.60;;;7.30
68440;BMP180;55421;51.600;5.718;2022-11-13T03:39:43;109630.00;;;7.30
68440;BMP180;55421;51.600;5.718;2022-11-13T03:42:09;109733.60;;;7.20
68440;BMP180;55421;51.600;5.718;2022-11-13T03:44:36;108608.20;;;7.18
68440;BMP180;55421;51.600;5.718;2022-11-13T03:47:02;108905.20;;;7.10
68440;BMP180;55421;51.600;5.718;2022-11-13T03:49:29;108792.00;;;7.10
68440;BMP180;55421;51.600;5.718;2022-11-13T03:51:55;103949.80;;;7.10
68440;BMP180;55421;51.600;5.718;2022-11-13T03:54:22;105389.40;;;7.10
68440;BMP180;55421;51.600;5.718;2022-11-13T03:56:48;104962.60;;;7.06
68440;BMP180;55421;51.600;5.718;2022-11-13T03:59:15;106235.00;;;7.00
68440;BMP180;55421;51.600;5.718;2022-11-13T04:01:41;105923.20;;;7.00
68440;BMP180;55421;51.600;5.718;2022-11-13T04:04:08;102555.80;;;7.00
68440;BMP180;55421;51.600;5.718;2022-11-13T04:06:35;100636.60;;;7.00
68440;BMP180;55421;51.600;5.718;2022-11-13T04:09:02;100728.60;;;6.98
68440;BMP180;55421;51.600;5.718;2022-11-13T04:11:29;98728.20;;;6.90
68440;BMP180;55421;51.600;5.718;2022-11-13T04:13:55;99690.20;;;6.90
68440;BMP180;55421;51.600;5.718;2022-11-13T04:16:22;98715.80;;;6.90
68440;BMP180;55421;51.600;5.718;2022-11-13T04:18:48;99993.40;;;6.90
68440;BMP180;55421;51.600;5.718;2022-11-13T04:21:15;101021.00;;;6.90
68440;BMP180;55421;51.600;5.718;2022-11-13T04:23:41;99175.80;;;6.90
68440;BMP180;55421;51.600;5.718;2022-11-13T04:26:08;101217.00;;;6.86
68440;BMP180;55421;51.600;5.718;2022-11-13T04:28:34;102218.80;;;6.86
68440;BMP180;55421;51.600;5.718;2022-11-13T04:31:02;105492.20;;;6.86
68440;BMP180;55421;51.600;5.718;2022-11-13T04:33:28;104122.20;;;6.84
68440;BMP180;55421;51.600;5.718;2022-11-13T04:35:55;103080.80;;;6.80
68440;BMP180;55421;51.600;5.718;2022-11-13T04:38:21;100540.80;;;6.80
68440;BMP180;55421;51.600;5.718;2022-11-13T04:40:49;98814.40;;;6.78
68440;BMP180;55421;51.600;5.718;2022-11-13T04:43:39;102453.80;;;6.70
68440;BMP180;55421;51.600;5.718;2022-11-13T04:46:06;100686.60;;;6.70
68440;BMP180;55421;51.600;5.718;2022-11-13T04:48:32;100886.00;;;6.70
68440;BMP180;55421;51.600;5.718;2022-11-13T04:50:59;100705.20;;;6.70
68440;BMP180;55421;51.600;5.718;2022-11-13T04:53:25;100946.80;;;6.66
68440;BMP180;55421;51.600;5.718;2022-11-13T04:55:52;101142.40;;;6.60
68440;BMP180;55421;51.600;5.718;2022-11-13T04:58:19;103553.60;;;6.60
68440;BMP180;55421;51.600;5.718;2022-11-13T05:00:45;103464.40;;;6.54
68440;BMP180;55421;51.600;5.718;2022-11-13T05:03:11;99510.00;;;6.50
68440;BMP180;55421;51.600;5.718;2022-11-13T05:05:38;100123.40;;;6.50
68440;BMP180;55421;51.600;5.718;2022-11-13T05:08:04;96488.80;;;6.46
68440;BMP180;55421;51.600;5.718;2022-11-13T05:10:31;100545.40;;;6.46
68440;BMP180;55421;51.600;5.718;2022-11-13T05:12:58;100056.20;;;6.50
68440;BMP180;55421;51.600;5.718;2022-11-13T05:15:24;100187.00;;;6.50
68440;BMP180;55421;51.600;5.718;2022-11-13T05:17:51;103385.40;;;6.50
68440;BMP180;55421;51.600;5.718;2022-11-13T05:20:19;101861.80;;;6.50
68440;BMP180;55421;51.600;5.718;2022-11-13T05:22:46;100273.00;;;6.50
68440;BMP180;55421;51.600;5.718;2022-11-13T05:25:12;97132.40;;;6.50
68440;BMP180;55421;51.600;5.718;2022-11-13T05:27:39;97535.80;;;6.50
68440;BMP180;55421;51.600;5.718;2022-11-13T05:30:07;95421.60;;;6.50
68440;BMP180;55421;51.600;5.718;2022-11-13T05:32:33;97063.20;;;6.54
68440;BMP180;55421;51.600;5.718;2022-11-13T05:35:00;92636.80;;;6.50
68440;BMP180;55421;51.600;5.718;2022-11-13T05:37:27;92418.60;;;6.50
68440;BMP180;55421;51.600;5.718;2022-11-13T05:39:54;89780.00;;;6.48
68440;BMP180;55421;51.600;5.718;2022-11-13T05:42:21;85958.20;;;6.40
68440;BMP180;55421;51.600;5.718;2022-11-13T05:44:48;87296.40;;;6.40
68440;BMP180;55421;51.600;5.718;2022-11-13T05:47:14;88553.60;;;6.44
68440;BMP180;55421;51.600;5.718;2022-11-13T05:49:40;91480.40;;;6.50
68440;BMP180;55421;51.600;5.718;2022-11-13T05:52:07;90992.00;;;6.48
68440;BMP180;55421;51.600;5.718;2022-11-13T05:54:33;87750.80;;;6.40
68440;BMP180;55421;51.600;5.718;2022-11-13T05:57:00;85212.20;;;6.40
68440;BMP180;55421;51.600;5.718;2022-11-13T05:59:26;84747.80;;;6.38
68440;BMP180;55421;51.600;5.718;2022-11-13T06:01:53;86324.80;;;6.32
68440;BMP180;55421;51.600;5.718;2022-11-13T06:04:20;85476.00;;;6.30
68440;BMP180;55421;51.600;5.718;2022-11-13T06:06:47;86529.00;;;6.30
68440;BMP180;55421;51.600;5.718;2022-11-13T06:09:15;87888.60;;;6.30
68440;BMP180;55421;51.600;5.718;2022-11-13T06:11:43;87415.00;;;6.26
68440;BMP180;55421;51.600;5.718;2022-11-13T06:14:09;83022.60;;;6.20
68440;BMP180;55421;51.600;5.718;2022-11-13T06:16:37;81382.40;;;6.20
68440;BMP180;55421;51.600;5.718;2022-11-13T06:19:08;80457.20;;;6.20
68440;BMP180;55421;51.600;5.718;2022-11-13T06:21:38;80437.80;;;6.20
68440;BMP180;55421;51.600;5.718;2022-11-13T06:24:08;87390.20;;;6.20
68440;BMP180;55421;51.600;5.718;2022-11-13T06:26:35;85928.40;;;6.20
68440;BMP180;55421;51.600;5.718;2022-11-13T06:29:04;82736.60;;;6.20
68440;BMP180;55421;51.600;5.718;2022-11-13T06:31:35;81730.80;;;6.20
68440;BMP180;55421;51.600;5.718;2022-11-13T06:34:03;82258.20;;;6.20
68440;BMP180;55421;51.600;5.718;2022-11-13T06:36:34;80865.80;;;6.20
68440;BMP180;55421;51.600;5.718;2022-11-13T06:39:05;74761.80;;;6.20
68440;BMP180;55421;51.600;5.718;2022-11-13T06:41:33;68317.40;;;6.30
68440;BMP180;55421;51.600;5.718;2022-11-13T06:44:00;84111.60;;;6.34
68440;BMP180;55421;51.600;5.718;2022-11-13T06:46:27;89848.60;;;6.50
68440;BMP180;55421;51.600;5.718;2022-11-13T06:48:55;87274.60;;;6.58
68440;BMP180;55421;51.600;5.718;2022-11-13T06:51:26;87636.00;;;6.60
68440;BMP180;55421;51.600;5.718;2022-11-13T06:53:54;86473.00;;;6.70
68440;BMP180;55421;51.600;5.718;2022-11-13T06:56:21;83065.40;;;6.80
68440;BMP180;55421;51.600;5.718;2022-11-13T06:58:48;25126.40;;;6.82
68440;BMP180;55421;51.600;5.718;2022-11-13T07:01:21;189612.41;;;6.90
68440;BMP180;55421;51.600;5.718;2022-11-13T07:03:48;231034.80;;;6.90
68440;BMP180;55421;51.600;5.718;2022-11-13T07:06:21;226105.59;;;6.98
68440;BMP180;55421;51.600;5.718;2022-11-13T07:08:49;223721.59;;;7.00
68440;BMP180;55421;51.600;5.718;2022-11-13T07:11:21;221415.80;;;7.02
68440;BMP180;55421;51.600;5.718;2022-11-13T07:13:49;220960.20;;;7.10
68440;BMP180;55421;51.600;5.718;2022-11-13T07:16:16;220432.80;;;7.10
68440;BMP180;55421;51.600;5.718;2022-11-13T07:18:51;220388.80;;;7.20
68440;BMP180;55421;51.600;5.718;2022-11-13T07:21:19;220105.59;;;7.20
68440;BMP180;55421;51.600;5.718;2022-11-13T07:23:48;220832.59;;;7.20
68440;BMP180;55421;51.600;5.718;2022-11-13T07:26:15;219644.00;;;7.20
68440;BMP180;55421;51.600;5.718;2022-11-13T07:28:42;220566.80;;;7.20
68440;BMP180;55421;51.600;5.718;2022-11-13T07:31:11;220613.00;;;7.30
68440;BMP180;55421;51.600;5.718;2022-11-13T07:33:38;219717.00;;;7.30
68440;BMP180;55421;51.600;5.718;2022-11-13T07:36:05;219671.00;;;7.30
68440;BMP180;55421;51.600;5.718;2022-11-13T07:38:33;219533.80;;;7.38
68440;BMP180;55421;51.600;5.718;2022-11-13T07:41:01;219220.80;;;7.40
68440;BMP180;55421;51.600;5.718;2022-11-13T07:43:28;218953.59;;;7.50
68440;BMP180;55421;51.600;5.718;2022-11-13T07:45:58;218953.00;;;7.56
68440;BMP180;55421;51.600;5.718;2022-11-13T07:48:25;218970.20;;;7.60
68440;BMP180;55421;51.600;5.718;2022-11-13T07:50:52;218844.59;;;7.70
68440;BMP180;55421;51.600;5.718;2022-11-13T07:53:21;218895.20;;;7.78
68440;BMP180;55421;51.600;5.718;2022-11-13T07:55:48;219077.20;;;7.80
68440;BMP180;55421;51.600;5.718;2022-11-13T07:58:14;219313.41;;;7.90
68440;BMP180;55421;51.600;5.718;2022-11-13T08:00:41;219483.41;;;7.90
68440;BMP180;55421;51.600;5.718;2022-11-13T08:03:14;219103.41;;;7.90
68440;BMP180;55421;51.600;5.718;2022-11-13T08:05:42;219180.59;;;7.90
68440;BMP180;55421;51.600;5.718;2022-11-13T08:08:13;218946.20;;;7.94
68440;BMP180;55421;51.600;5.718;2022-11-13T08:10:40;219054.41;;;8.00
68440;BMP180;55421;51.600;5.718;2022-11-13T08:13:09;219275.59;;;8.00
68440;BMP180;55421;51.600;5.718;2022-11-13T08:15:37;218943.41;;;8.00
68440;BMP180;55421;51.600;5.718;2022-11-13T08:18:05;218947.80;;;8.10
68440;BMP180;55421;51.600;5.718;2022-11-13T08:20:32;219012.20;;;8.10
68440;BMP180;55421;51.600;5.718;2022-11-13T08:23:01;219024.00;;;8.20
68440;BMP180;55421;51.600;5.718;2022-11-13T08:25:31;219088.80;;;8.30
68440;BMP180;55421;51.600;5.718;2022-11-13T08:27:58;219123.80;;;8.40
68440;BMP180;55421;51.600;5.718;2022-11-13T08:30:26;219153.00;;;8.40
68440;BMP180;55421;51.600;5.718;2022-11-13T08:32:54;219185.41;;;8.50
68440;BMP180;55421;51.600;5.718;2022-11-13T08:35:21;219217.80;;;8.52
68440;BMP180;55421;51.600;5.718;2022-11-13T08:37:47;219242.59;;;8.60
68440;BMP180;55421;51.600;5.718;2022-11-13T08:40:14;219265.41;;;8.60
68440;BMP180;55421;51.600;5.718;2022-11-13T08:42:41;219278.59;;;8.62
68440;BMP180;55421;51.600;5.718;2022-11-13T08:45:09;219299.00;;;8.70
68440;BMP180;55421;51.600;5.718;2022-11-13T08:47:36;219322.59;;;8.70
68440;BMP180;55421;51.600;5.718;2022-11-13T08:50:04;219333.41;;;8.70
68440;BMP180;55421;51.600;5.718;2022-11-13T08:52:31;219369.59;;;8.80
68440;BMP180;55421;51.600;5.718;2022-11-13T08:54:57;219414.00;;;8.90
68440;BMP180;55421;51.600;5.718;2022-11-13T08:57:24;219458.80;;;9.00
68440;BMP180;55421;51.600;5.718;2022-11-13T08:59:51;219501.00;;;9.00
68440;BMP180;55421;51.600;5.718;2022-11-13T09:02:17;219538.41;;;9.10
68440;BMP180;55421;51.600;5.718;2022-11-13T09:04:45;219582.80;;;9.20
68440;BMP180;55421;51.600;5.718;2022-11-13T09:07:12;219615.20;;;9.20
68440;BMP180;55421;51.600;5.718;2022-11-13T09:09:39;219638.80;;;9.30
68440;BMP180;55421;51.600;5.718;2022-11-13T09:12:05;219667.59;;;9.30
68440;BMP180;55421;51.600;5.718;2022-11-13T09:14:32;219699.00;;;9.40
68440;BMP180;55421;51.600;5.718;2022-11-13T09:16:58;219725.80;;;9.40
68440;BMP180;55421;51.600;5.718;2022-11-13T09:19:25;219755.00;;;9.50
68440;BMP180;55421;51.600;5.718;2022-11-13T09:21:52;219783.20;;;9.50
68440;BMP180;55421;51.600;5.718;2022-11-13T09:24:19;219814.00;;;9.60
68440;BMP180;55421;51.600;5.718;2022-11-13T09:26:45;219845.00;;;9.70
68440;BMP180;55421;51.600;5.718;2022-11-13T09:29:12;219873.00;;;9.70
68440;BMP180;55421;51.600;5.718;2022-11-13T09:31:39;219903.00;;;9.80
68440;BMP180;55421;51.600;5.718;2022-11-13T09:34:07;219943.80;;;9.80
68440;BMP180;55421;51.600;5.718;2022-11-13T09:36:35;219987.59;;;9.90
68440;BMP180;55421;51.600;5.718;2022-11-13T09:39:03;220026.59;;;9.96
68440;BMP180;55421;51.600;5.718;2022-11-13T09:42:18;220057.80;;;10.00
68440;BMP180;55421;51.600;5.718;2022-11-13T09:44:51;220117.59;;;10.10
68440;BMP180;55421;51.600;5.718;2022-11-13T09:47:32;220162.41;;;10.20
68440;BMP180;55421;51.600;5.718;2022-11-13T09:52:36;220263.20;;;10.40
68440;BMP180;55421;51.600;5.718;2022-11-13T09:55:04;220330.00;;;10.50
68440;BMP180;55421;51.600;5.718;2022-11-13T09:57:59;220384.80;;;10.60
68440;BMP180;55421;51.600;5.718;2022-11-13T10:00:28;220430.20;;;10.70
68440;BMP180;55421;51.600;5.718;2022-11-13T10:03:35;220481.80;;;10.80
68440;BMP180;55421;51.600;5.718;2022-11-13T10:06:48;220548.80;;;10.90
68440;BMP180;55421;51.600;5.718;2022-11-13T10:09:58;220615.41;;;11.00
68440;BMP180;55421;51.600;5.718;2022-11-13T10:12:30;220673.80;;;11.10
68440;BMP180;55421;51.600;5.718;2022-11-13T10:15:02;220725.20;;;11.20
68440;BMP180;55421;51.600;5.718;2022-11-13T10:17:56;220776.80;;;11.30
68440;BMP180;55421;51.600;5.718;2022-11-13T10:20:40;220837.80;;;11.40
68440;BMP180;55421;51.600;5.718;2022-11-13T10:23:29;220888.80;;;11.50
68440;BMP180;55421;51.600;5.718;2022-11-13T10:26:16;220952.80;;;11.60
68440;BMP180;55421;51.600;5.718;2022-11-13T10:28:43;221003.00;;;11.70
68440;BMP180;55421;51.600;5.718;2022-11-13T10:31:11;221041.59;;;11.80
68440;BMP180;55421;51.600;5.718;2022-11-13T10:33:38;221070.41;;;11.80
68440;BMP180;55421;51.600;5.718;2022-11-13T10:39:06;221148.80;;;12.00
68440;BMP180;55421;51.600;5.718;2022-11-13T10:41:46;221182.59;;;12.00
68440;BMP180;55421;51.600;5.718;2022-11-13T10:44:28;221215.80;;;12.10
68440;BMP180;55421;51.600;5.718;2022-11-13T10:47:18;221245.41;;;12.10
68440;BMP180;55421;51.600;5.718;2022-11-13T10:49:45;221269.41;;;12.20
68440;BMP180;55421;51.600;5.718;2022-11-13T10:52:26;221301.00;;;12.20
68440;BMP180;55421;51.600;5.718;2022-11-13T10:55:37;221333.41;;;12.30
68440;BMP180;55421;51.600;5.718;2022-11-13T10:58:14;221363.41;;;12.36
68440;BMP180;55421;51.600;5.718;2022-11-13T11:00:42;221388.59;;;12.40
68440;BMP180;55421;51.600;5.718;2022-11-13T11:03:32;221407.80;;;12.40
68440;BMP180;55421;51.600;5.718;2022-11-13T11:06:02;221425.00;;;12.50
68440;BMP180;55421;51.600;5.718;2022-11-13T11:08:34;221439.41;;;12.50
68440;BMP180;55421;51.600;5.718;2022-11-13T11:11:12;221462.59;;;12.50
68440;BMP180;55421;51.600;5.718;2022-11-13T11:14:37;221485.20;;;12.60
68440;BMP180;55421;51.600;5.718;2022-11-13T11:17:07;221507.20;;;12.60
68440;BMP180;55421;51.600;5.718;2022-11-13T11:19:37;221533.59;;;12.60
68440;BMP180;55421;51.600;5.718;2022-11-13T11:22:18;221545.59;;;12.70
68440;BMP180;55421;51.600;5.718;2022-11-13T11:28:03;221614.80;;;12.80
68440;BMP180;55421;51.600;5.718;2022-11-13T11:30:44;221630.80;;;12.80
68440;BMP180;55421;51.600;5.718;2022-11-13T11:33:34;221655.20;;;12.90
68440;BMP180;55421;51.600;5.718;2022-11-13T11:36:27;221677.20;;;12.90
68440;BMP180;55421;51.600;5.718;2022-11-13T11:39:14;221697.59;;;12.98
68440;BMP180;55421;51.600;5.718;2022-11-13T11:45:03;221735.59;;;13.00
68440;BMP180;55421;51.600;5.718;2022-11-13T11:47:33;221755.80;;;13.06
68440;BMP180;55421;51.600;5.718;2022-11-13T11:50:03;221769.41;;;13.10
68440;BMP180;55421;51.600;5.718;2022-11-13T11:53:13;221785.41;;;13.10
68440;BMP180;55421;51.600;5.718;2022-11-13T11:56:30;221799.41;;;13.10
68440;BMP180;55421;51.600;5.718;2022-11-13T11:59:22;221809.00;;;13.10
68440;BMP180;55421;51.600;5.718;2022-11-13T12:04:57;221834.41;;;13.20
68440;BMP180;55421;51.600;5.718;2022-11-13T12:07:58;221860.80;;;13.20
68440;BMP180;55421;51.600;5.718;2022-11-13T12:16:45;221889.59;;;13.30
68440;BMP180;55421;51.600;5.718;2022-11-13T12:19:38;221898.80;;;13.30
68440;BMP180;55421;51.600;5.718;2022-11-13T12:22:19;221910.00;;;13.30
68440;BMP180;55421;51.600;5.718;2022-11-13T12:28:13;221931.41;;;13.40
68440;BMP180;55421;51.600;5.718;2022-11-13T12:31:23;221947.00;;;13.40
68440;BMP180;55421;51.600;5.718;2022-11-13T12:36:47;221972.20;;;13.40
68440;BMP180;55421;51.600;5.718;2022-11-13T12:39:50;221985.00;;;13.48
68440;BMP180;55421;51.600;5.718;2022-11-13T12:42:38;222003.80;;;13.50
68440;BMP180;55421;51.600;5.718;2022-11-13T12:48:20;222018.59;;;13.50
68440;BMP180;55421;51.600;5.718;2022-11-13T12:51:01;222026.20;;;13.50
68440;BMP180;55421;51.600;5.718;2022-11-13T12:53:46;222037.00;;;13.50
68440;BMP180;55421;51.600;5.718;2022-11-13T12:56:30;222046.80;;;13.60
68440;BMP180;55421;51.600;5.718;2022-11-13T12:59:08;222049.59;;;13.60
68440;BMP180;55421;51.600;5.718;2022-11-13T13:01:47;222064.41;;;13.60
68440;BMP180;55421;51.600;5.718;2022-11-13T13:16:28;222145.41;;;13.70
68440;BMP180;55421;51.600;5.718;2022-11-13T13:19:29;222160.20;;;13.78
68440;BMP180;55421;51.600;5.718;2022-11-13T13:21:54;222162.20;;;13.80
68440;BMP180;55421;51.600;5.718;2022-11-13T13:24:30;222163.41;;;13.80
68440;BMP180;55421;51.600;5.718;2022-11-13T13:26:58;222171.41;;;13.80
68440;BMP180;55421;51.600;5.718;2022-11-13T13:29:28;222167.00;;;13.80
68440;BMP180;55421;51.600;5.718;2022-11-13T13:32:03;222161.80;;;13.80
68440;BMP180;55421;51.600;5.718;2022-11-13T13:35:13;222161.80;;;13.78
68440;BMP180;55421;51.600;5.718;2022-11-13T13:41:15;222135.80;;;13.70
68440;BMP180;55421;51.600;5.718;2022-11-13T13:44:17;222125.00;;;13.70
68440;BMP180;55421;51.600;5.718;2022-11-13T13:46:48;222101.41;;;13.70
68440;BMP180;55421;51.600;5.718;2022-11-13T13:49:19;222090.20;;;13.60
68440;BMP180;55421;51.600;5.718;2022-11-13T13:51:50;222061.59;;;13.60
68440;BMP180;55421;51.600;5.718;2022-11-13T13:54:23;222048.00;;;13.60
68440;BMP180;55421;51.600;5.718;2022-11-13T13:56:54;222040.59;;;13.54
68440;BMP180;55421;51.600;5.718;2022-11-13T13:59:35;222031.00;;;13.50
68440;BMP180;55421;51.600;5.718;2022-11-13T14:02:15;222027.41;;;13.50
68440;BMP180;55421;51.600;5.718;2022-11-13T14:04:49;222011.80;;;13.50
68440;BMP180;55421;51.600;5.718;2022-11-13T14:10:05;221986.59;;;13.48
68440;BMP180;55421;51.600;5.718;2022-11-13T14:12:32;221966.59;;;13.40
68440;BMP180;55421;51.600;5.718;2022-11-13T14:14:58;221941.41;;;13.40
68440;BMP180;55421;51.600;5.718;2022-11-13T14:17:25;221920.20;;;13.30
68440;BMP180;55421;51.600;5.718;2022-11-13T14:19:55;221901.59;;;13.30
68440;BMP180;55421;51.600;5.718;2022-11-13T14:22:26;221889.59;;;13.26
68440;BMP180;55421;51.600;5.718;2022-11-13T14:24:57;221871.59;;;13.20
68440;BMP180;55421;51.600;5.718;2022-11-13T14:27:27;221859.59;;;13.20
68440;BMP180;55421;51.600;5.718;2022-11-13T14:29:58;221827.80;;;13.20
68440;BMP180;55421;51.600;5.718;2022-11-13T14:32:31;221797.80;;;13.10
68440;BMP180;55421;51.600;5.718;2022-11-13T14:35:01;221775.41;;;13.10
68440;BMP180;55421;51.600;5.718;2022-11-13T14:37:36;221752.59;;;13.02
68440;BMP180;55421;51.600;5.718;2022-11-13T14:40:24;221732.80;;;13.00
68440;BMP180;55421;51.600;5.718;2022-11-13T14:42:59;221704.41;;;12.98
68440;BMP180;55421;51.600;5.718;2022-11-13T14:45:30;221678.80;;;12.90
68440;BMP180;55421;51.600;5.718;2022-11-13T14:48:29;221648.00;;;12.82
68440;BMP180;55421;51.600;5.718;2022-11-13T14:51:00;221616.20;;;12.80
68440;BMP180;55421;51.600;5.718;2022-11-13T14:56:06;221552.59;;;12.70
68440;BMP180;55421;51.600;5.718;2022-11-13T14:58:40;221528.41;;;12.60
68440;BMP180;55421;51.600;5.718;2022-11-13T15:01:24;221496.41;;;12.60
68440;BMP180;55421;51.600;5.718;2022-11-13T15:03:51;221466.80;;;12.50
68440;BMP180;55421;51.600;5.718;2022-11-13T15:06:22;221427.80;;;12.50
68440;BMP180;55421;51.600;5.718;2022-11-13T15:08:54;221404.59;;;12.40
68440;BMP180;55421;51.600;5.718;2022-11-13T15:11:23;221383.41;;;12.40
68440;BMP180;55421;51.600;5.718;2022-11-13T15:13:50;221352.59;;;12.30
68440;BMP180;55421;51.600;5.718;2022-11-13T15:16:26;221328.59;;;12.30
68440;BMP180;55421;51.600;5.718;2022-11-13T15:19:01;221290.59;;;12.20
68440;BMP180;55421;51.600;5.718;2022-11-13T15:21:28;221254.20;;;12.14
68440;BMP180;55421;51.600;5.718;2022-11-13T15:23:56;221220.20;;;12.10
68440;BMP180;55421;51.600;5.718;2022-11-13T15:26:23;221194.20;;;12.00